Time;durP1;ratioP1;P1;durP2;ratioP2;P2;SDS_P1;SDS_P2;PMS_P1;PMS_P2;Temp;Humidity;BMP_temperature;BMP_pressure;BME280_temperature;BME280_humidity;BME280_pressure;Samples;Min_cycle;Max_cycle;Signal;HPM_P1;HPM_P2
2024/03/01 00:00:33;;;;;;;10.30;2.55;;;4.70;99.90;;;3.84;100.00;100493.66;4195702;28;20032;-76
2024/03/01 00:02:34;;;;;;;8.80;2.63;;;4.70;99.90;;;3.80;100.00;100488.78;4185358;28;20033;-76
2024/03/01 00:04:35;;;;;;;9.65;2.17;;;4.70;99.90;;;3.79;100.00;100500.19;4185075;28;20032;-76
2024/03/01 00:06:36;;;;;;;8.25;2.47;;;4.60;99.90;;;3.76;100.00;100498.63;4200083;28;20037;-76
2024/03/01 00:08:37;;;;;;;11.05;3.17;;;4.60;99.90;;;3.74;100.00;100486.66;4189012;28;20060;-76
2024/03/01 00:10:37;;;;;;;7.78;3.08;;;4.60;99.90;;;3.71;100.00;100484.28;4192643;28;20451;-76
2024/03/01 00:12:38;;;;;;;7.43;2.70;;;4.60;99.90;;;3.66;100.00;100478.59;4183991;28;20048;-76
2024/03/01 00:14:39;;;;;;;12.00;3.45;;;4.50;99.90;;;3.65;100.00;100471.72;4184945;28;20079;-76
2024/03/01 00:16:40;;;;;;;14.00;2.92;;;4.50;99.90;;;3.59;100.00;100461.75;4185263;28;20017;-76
2024/03/01 00:18:42;;;;;;;6.60;3.70;;;4.40;99.90;;;3.62;100.00;100464.94;4183759;28;20029;-76
2024/03/01 00:20:43;;;;;;;9.43;3.55;;;4.40;99.90;;;3.59;100.00;100459.97;4194646;28;20127;-76
2024/03/01 00:22:44;;;;;;;9.63;2.92;;;4.40;99.90;;;3.60;100.00;100453.81;4186385;28;20028;-76
2024/03/01 00:24:44;;;;;;;8.18;2.97;;;4.40;99.90;;;3.56;100.00;100451.56;4184947;28;20029;-76
2024/03/01 00:26:46;;;;;;;10.02;2.45;;;4.40;99.90;;;3.52;100.00;100447.53;4191849;28;20039;-76
2024/03/01 00:28:47;;;;;;;15.55;3.10;;;4.40;99.90;;;3.58;100.00;100444.47;4172181;28;20061;-76
2024/03/01 00:30:48;;;;;;;8.52;2.22;;;4.40;99.90;;;3.54;100.00;100443.03;4198454;28;20027;-76
2024/03/01 00:32:48;;;;;;;14.93;2.78;;;4.40;99.90;;;3.53;100.00;100442.19;4184629;28;20036;-76
2024/03/01 00:34:49;;;;;;;5.53;2.47;;;4.40;99.90;;;3.51;100.00;100449.31;4192199;28;20053;-76
2024/03/01 00:36:50;;;;;;;13.13;3.53;;;4.40;99.90;;;3.49;100.00;100434.75;4200158;28;20461;-76
2024/03/01 00:38:51;;;;;;;8.45;2.13;;;4.30;99.90;;;3.43;100.00;100438.66;4183580;28;20494;-76
2024/03/01 00:40:52;;;;;;;4.88;1.73;;;4.30;99.90;;;3.37;100.00;100428.69;4194484;28;20043;-76
2024/03/01 00:42:53;;;;;;;9.55;2.90;;;4.30;99.90;;;3.38;100.00;100432.94;4201462;28;20053;-75
2024/03/01 00:44:54;;;;;;;12.05;2.88;;;4.20;99.90;;;3.39;100.00;100431.16;4200370;28;20028;-75
2024/03/01 00:46:56;;;;;;;8.05;2.63;;;4.20;99.90;;;3.36;100.00;100411.38;4200003;28;20036;-76
2024/03/01 00:48:56;;;;;;;9.10;2.00;;;4.20;99.90;;;3.44;100.00;100413.38;4196596;28;20554;-75
2024/03/01 00:50:57;;;;;;;9.13;2.35;;;4.30;99.90;;;3.44;100.00;100409.00;4189096;28;20029;-76
2024/03/01 00:52:58;;;;;;;12.80;3.13;;;4.30;99.90;;;3.50;100.00;100412.91;4186805;28;20055;-76
2024/03/01 00:54:59;;;;;;;9.20;2.50;;;4.30;99.90;;;3.52;100.00;100398.00;4186552;28;20025;-76
2024/03/01 00:57:00;;;;;;;12.10;3.45;;;4.40;99.90;;;3.52;100.00;100396.22;4190100;28;20028;-76
2024/03/01 00:59:01;;;;;;;13.10;3.28;;;4.40;99.90;;;3.55;100.00;100398.59;4196606;28;20080;-76
2024/03/01 01:01:01;;;;;;;6.57;2.42;;;4.40;99.90;;;3.56;100.00;100399.41;4198386;28;20024;-76
2024/03/01 01:03:02;;;;;;;15.57;3.00;;;4.40;99.90;;;3.61;100.00;100399.88;4204234;28;20024;-76
2024/03/01 01:05:04;;;;;;;11.95;3.55;;;4.50;99.90;;;3.59;100.00;100392.16;4202967;28;20052;-76
2024/03/01 01:07:05;;;;;;;11.07;3.85;;;4.50;99.90;;;3.58;100.00;100389.69;4204197;28;20403;-76
2024/03/01 01:09:06;;;;;;;10.45;3.20;;;4.50;99.90;;;3.64;100.00;100387.44;4204226;28;20471;-76
2024/03/01 01:11:06;;;;;;;10.05;2.20;;;4.50;99.90;;;3.73;100.00;100375.44;4204076;28;20028;-76
2024/03/01 01:13:07;;;;;;;11.57;2.60;;;4.60;99.90;;;3.76;100.00;100368.19;4199239;28;20029;-76
2024/03/01 01:15:09;;;;;;;14.70;3.25;;;4.70;99.90;;;3.87;100.00;100368.19;4187542;28;20047;-76
2024/03/01 01:17:10;;;;;;;10.38;2.78;;;4.80;99.90;;;4.02;100.00;100355.69;4187451;28;20028;-76
2024/03/01 01:19:11;;;;;;;11.32;2.42;;;4.80;99.90;;;4.10;100.00;100342.00;4169724;28;20096;-76
2024/03/01 01:21:12;;;;;;;9.65;2.15;;;4.90;99.90;;;4.10;100.00;100344.63;4197387;28;20029;-76
2024/03/01 01:23:13;;;;;;;12.43;2.45;;;5.00;99.90;;;4.11;100.00;100331.44;4186274;28;20021;-76
2024/03/01 01:25:14;;;;;;;12.20;2.17;;;5.00;99.90;;;4.15;100.00;100327.63;4195208;28;20519;-76
2024/03/01 01:27:15;;;;;;;13.80;3.38;;;5.00;99.90;;;4.08;100.00;100329.09;4190230;28;20029;-76
2024/03/01 01:29:16;;;;;;;10.88;2.20;;;5.00;99.90;;;4.09;100.00;100332.53;4203959;28;20025;-76
2024/03/01 01:31:18;;;;;;;6.45;1.63;;;5.00;99.90;;;4.03;100.00;100336.47;4198303;28;20029;-76
2024/03/01 01:33:18;;;;;;;9.00;2.88;;;4.90;99.90;;;4.00;100.00;100331.50;4191023;28;20025;-76
2024/03/01 01:35:19;;;;;;;7.32;2.85;;;4.90;99.90;;;4.04;100.00;100326.84;4191719;28;20017;-76
2024/03/01 01:37:20;;;;;;;9.30;2.13;;;4.90;99.90;;;4.02;100.00;100324.38;4185889;28;20033;-76
2024/03/01 01:39:21;;;;;;;9.57;2.35;;;4.90;99.90;;;4.00;100.00;100328.91;4187103;28;20025;-76
2024/03/01 01:41:22;;;;;;;9.35;2.28;;;4.80;99.90;;;3.96;100.00;100304.00;4189914;28;20063;-76
2024/03/01 01:43:23;;;;;;;9.73;2.08;;;4.90;99.90;;;3.98;100.00;100315.13;4185879;28;20496;-77
2024/03/01 01:45:24;;;;;;;8.43;2.13;;;4.90;99.90;;;4.10;100.00;100328.94;4200891;28;20037;-76
2024/03/01 01:47:25;;;;;;;9.02;2.38;;;4.90;99.90;;;4.18;100.00;100321.34;4198475;28;20051;-76
2024/03/01 01:49:28;;;;;;;10.95;2.25;;;5.00;99.90;;;4.35;100.00;100297.28;4187046;28;20017;-76
2024/03/01 01:51:29;;;;;;;14.07;1.90;;;5.10;99.90;;;4.54;100.00;100296.59;4188446;28;20032;-77
2024/03/01 01:53:32;;;;;;;10.05;2.75;;;5.30;99.90;;;4.71;100.00;100282.94;4185659;28;20048;-76
2024/03/01 01:55:33;;;;;;;6.95;2.28;;;5.40;99.90;;;4.74;100.00;100262.59;4186940;28;20025;-76
2024/03/01 01:57:34;;;;;;;12.23;2.00;;;5.50;99.90;;;4.80;100.00;100262.06;4186856;28;20036;-76
2024/03/01 01:59:36;;;;;;;14.95;2.92;;;5.60;99.90;;;4.89;100.00;100258.69;4168998;28;20033;-76
2024/03/01 02:01:37;;;;;;;11.45;3.58;;;5.60;99.90;;;4.92;100.00;100249.75;4185925;28;20044;-77
2024/03/01 02:03:38;;;;;;;12.60;3.60;;;5.70;99.90;;;4.98;100.00;100236.16;4191117;28;20480;-76
2024/03/01 02:05:41;;;;;;;11.52;2.30;;;5.80;99.90;;;5.03;100.00;100233.94;4201915;28;20095;-76
2024/03/01 02:07:42;;;;;;;8.43;1.88;;;5.80;99.90;;;5.10;100.00;100216.78;4203263;28;20032;-76
2024/03/01 02:09:43;;;;;;;9.23;1.80;;;5.90;99.90;;;5.12;100.00;100212.25;4203124;28;20033;-76
2024/03/01 02:11:44;;;;;;;14.63;2.88;;;5.90;99.90;;;5.11;100.00;100213.19;4185454;28;20027;-76
2024/03/01 02:13:45;;;;;;;12.52;3.22;;;5.90;99.90;;;5.12;100.00;100212.25;4198552;28;20031;-77
2024/03/01 02:15:46;;;;;;;7.93;2.05;;;5.90;99.90;;;5.07;100.00;100188.31;4190982;28;20021;-76
2024/03/01 02:17:47;;;;;;;10.80;2.30;;;5.90;99.90;;;5.09;100.00;100188.16;4186463;28;20025;-76
2024/03/01 02:19:48;;;;;;;9.98;3.03;;;5.90;99.90;;;5.08;100.00;100176.06;4186763;28;20040;-76
2024/03/01 02:22:02;;;;;;;15.18;3.08;;;5.90;99.90;;;5.14;100.00;100180.75;4193367;28;20024;-76
2024/03/01 02:24:04;;;;;;;13.40;2.42;;;5.90;99.90;;;5.15;100.00;100172.75;4185567;28;20476;-76
2024/03/01 02:26:06;;;;;;;12.48;2.40;;;6.00;99.90;;;5.22;100.00;100173.88;4187820;28;20185;-76
2024/03/01 02:28:06;;;;;;;7.95;1.88;;;6.00;99.90;;;5.32;100.00;100159.00;4195642;28;20054;-76
2024/03/01 02:30:09;;;;;;;11.57;2.55;;;6.10;99.90;;;5.38;100.00;100168.09;4195857;28;20020;-76
2024/03/01 02:32:12;;;;;;;15.18;2.25;;;6.10;99.90;;;5.48;100.00;100140.16;4190375;28;20075;-76
2024/03/01 02:34:13;;;;;;;9.95;2.70;;;6.20;99.90;;;5.55;100.00;100131.59;4195863;28;20079;-77
2024/03/01 02:36:14;;;;;;;13.18;2.40;;;6.30;99.90;;;5.69;100.00;100113.84;4185026;28;20021;-77
2024/03/01 02:38:15;;;;;;;9.13;2.20;;;6.40;99.90;;;5.76;100.00;100105.31;4194152;28;20587;-77
2024/03/01 02:40:16;;;;;;;13.13;2.33;;;6.40;99.90;;;5.83;100.00;100085.44;4197546;28;20372;-76
2024/03/01 02:42:17;;;;;;;11.15;2.65;;;6.50;99.90;;;5.89;100.00;100089.31;4185553;28;20040;-76
2024/03/01 02:44:18;;;;;;;15.85;3.22;;;6.60;99.90;;;5.86;100.00;100079.13;4190536;28;20033;-76
2024/03/01 02:46:19;;;;;;;9.85;2.30;;;6.60;99.90;;;5.95;100.00;100071.25;4186128;28;20080;-76
2024/03/01 02:48:20;;;;;;;12.73;3.22;;;6.70;99.90;;;6.01;100.00;100070.69;4184964;28;20029;-77
2024/03/01 02:50:20;;;;;;;8.75;2.58;;;6.70;99.90;;;6.03;100.00;100062.69;4188118;28;20029;-77
2024/03/01 02:52:21;;;;;;;11.25;2.67;;;6.80;99.90;;;6.11;100.00;100047.09;4186036;28;20088;-77
2024/03/01 02:54:22;;;;;;;11.18;3.75;;;6.80;99.90;;;6.22;100.00;100032.97;4185988;28;20044;-77
2024/03/01 02:56:23;;;;;;;21.23;7.10;;;6.90;99.90;;;6.31;100.00;100035.53;4184617;28;20025;-77
2024/03/01 02:58:24;;;;;;;13.40;6.40;;;7.00;99.90;;;6.42;100.00;100031.91;4184603;28;20032;-77
2024/03/01 03:00:25;;;;;;;16.88;3.67;;;7.10;99.90;;;6.38;100.00;100022.69;4186208;28;20091;-77
2024/03/01 03:02:26;;;;;;;13.07;4.40;;;7.10;99.90;;;6.42;100.00;100024.84;4201148;28;20078;-76
2024/03/01 03:04:27;;;;;;;9.05;2.88;;;7.20;99.90;;;6.49;100.00;100012.81;4184577;28;20033;-77
2024/03/01 03:06:28;;;;;;;21.60;3.40;;;7.20;99.90;;;6.67;100.00;100002.34;4193444;28;20067;-76
2024/03/01 03:08:29;;;;;;;13.40;2.80;;;7.40;99.90;;;6.74;100.00;99998.19;4185796;28;20033;-77
2024/03/01 03:10:30;;;;;;;22.40;3.72;;;7.40;99.90;;;6.85;100.00;99990.09;4191150;28;20029;-77
2024/03/01 03:12:31;;;;;;;11.18;2.67;;;7.50;99.90;;;6.95;100.00;99979.53;4190574;28;20021;-77
2024/03/01 03:14:32;;;;;;;9.00;1.98;;;7.60;99.90;;;7.04;100.00;99966.31;4185597;28;20086;-77
2024/03/01 03:16:33;;;;;;;12.00;2.80;;;7.70;99.90;;;7.14;100.00;99953.09;4184364;28;20492;-76
2024/03/01 03:18:34;;;;;;;12.85;2.20;;;7.80;99.90;;;7.18;100.00;99949.22;4191288;28;20032;-77
2024/03/01 03:20:35;;;;;;;13.70;2.38;;;7.80;99.90;;;7.28;100.00;99933.38;4196613;28;20028;-77
2024/03/01 03:22:44;;;;;;;10.95;1.67;;;7.90;99.90;;;7.30;100.00;99927.00;4188689;28;20029;-77
2024/03/01 03:24:46;;;;;;;21.52;3.40;;;7.90;99.90;;;7.40;100.00;99921.63;4184702;28;20029;-77
2024/03/01 03:26:47;;;;;;;10.88;2.05;;;8.00;99.90;;;7.45;100.00;99912.31;4193883;28;20080;-77
2024/03/01 03:28:47;;;;;;;6.00;1.77;;;8.10;99.90;;;7.45;100.00;99906.25;4202057;28;20028;-77
2024/03/01 03:30:48;;;;;;;13.65;3.03;;;8.10;99.90;;;7.42;100.00;99889.03;4200637;28;20017;-77
2024/03/01 03:32:49;;;;;;;13.00;2.58;;;8.20;99.90;;;7.48;100.00;99879.69;4188664;28;20021;-76
2024/03/01 03:34:50;;;;;;;12.88;2.08;;;8.20;99.90;;;7.54;100.00;99872.03;4192758;28;20037;-77
2024/03/01 03:36:51;;;;;;;19.23;3.88;;;8.20;99.90;;;7.58;100.00;99865.50;4195026;28;20023;-77
2024/03/01 03:38:52;;;;;;;16.05;2.95;;;8.30;99.90;;;7.59;100.00;99858.41;4186481;28;20036;-77
2024/03/01 03:40:52;;;;;;;12.43;3.55;;;8.30;99.90;;;7.60;100.00;99865.31;4188239;28;20496;-77
2024/03/01 03:42:53;;;;;;;23.23;2.60;;;8.30;99.90;;;7.56;100.00;99848.22;4185335;28;20087;-77
2024/03/01 03:44:54;;;;;;;12.95;2.95;;;8.30;99.90;;;7.59;100.00;99842.66;4184076;28;20029;-77
2024/03/01 03:46:55;;;;;;;22.13;3.40;;;8.30;99.90;;;7.55;100.00;99839.56;4185161;28;20086;-77
2024/03/01 03:48:56;;;;;;;18.50;2.97;;;8.30;99.90;;;7.51;100.00;99822.47;4167461;28;20037;-76
2024/03/01 03:50:57;;;;;;;15.77;2.58;;;8.30;99.90;;;7.56;100.00;99820.19;4185944;28;20020;-76
2024/03/01 03:52:58;;;;;;;14.55;3.42;;;8.20;99.90;;;7.47;100.00;99799.31;4193969;28;20411;-76
2024/03/01 03:54:58;;;;;;;14.40;2.75;;;8.20;99.90;;;7.53;100.00;99794.25;4187367;28;20029;-77
2024/03/01 03:56:59;;;;;;;19.58;2.75;;;8.20;99.90;;;7.50;100.00;99796.38;4184989;28;20505;-77
2024/03/01 03:59:00;;;;;;;24.88;3.03;;;8.20;99.90;;;7.55;100.00;99781.00;4184087;28;20393;-77
2024/03/01 04:01:01;;;;;;;18.67;2.97;;;8.20;99.90;;;7.53;100.00;99790.81;4194077;28;20025;-77
2024/03/01 04:03:02;;;;;;;14.93;2.47;;;8.20;99.90;;;7.51;100.00;99777.03;4189465;28;20029;-76
2024/03/01 04:05:05;;;;;;;20.02;3.22;;;8.20;99.90;;;7.52;100.00;99763.78;4184760;28;20025;-77
2024/03/01 04:07:06;;;;;;;18.70;3.53;;;8.20;99.90;;;7.48;100.00;99757.19;4185180;28;20029;-77
2024/03/01 04:09:10;;;;;;;15.90;3.17;;;8.20;99.90;;;7.49;100.00;99743.09;4185156;28;20274;-77
2024/03/01 04:11:10;;;;;;;17.30;3.47;;;8.20;99.90;;;7.43;100.00;99758.66;4195200;28;20100;-77
2024/03/01 04:13:11;;;;;;;21.67;4.15;;;8.20;99.90;;;7.48;100.00;99736.19;4184393;28;20088;-77
2024/03/01 04:15:12;;;;;;;20.20;4.03;;;8.20;99.90;;;7.52;100.00;99715.72;4189582;28;20475;-77
2024/03/01 04:17:13;;;;;;;17.63;3.15;;;8.20;99.90;;;7.44;100.00;99692.88;4201249;28;20058;-77
2024/03/01 04:19:14;;;;;;;18.33;3.08;;;8.20;99.90;;;7.44;100.00;99687.63;4189372;28;20040;-77
2024/03/01 04:21:15;;;;;;;16.05;2.70;;;8.20;99.90;;;7.48;100.00;99667.97;4191682;28;20033;-77
2024/03/01 04:23:16;;;;;;;22.85;3.65;;;8.20;99.90;;;7.47;100.00;99650.59;4185111;28;20024;-77
2024/03/01 04:25:17;;;;;;;15.55;3.88;;;8.20;99.90;;;7.53;100.00;99644.69;4185037;28;20025;-77
2024/03/01 04:27:18;;;;;;;19.30;3.53;;;8.20;99.90;;;7.59;100.00;99625.66;4198451;28;20029;-77
2024/03/01 04:29:19;;;;;;;30.13;4.65;;;8.20;99.90;;;7.63;100.00;99616.50;4204709;28;20055;-77
2024/03/01 04:31:20;;;;;;;21.90;3.35;;;8.30;99.90;;;7.62;100.00;99612.22;4197638;28;20039;-77
2024/03/01 04:33:22;;;;;;;26.17;3.30;;;8.30;99.90;;;7.60;100.00;99611.56;4193414;28;20499;-77
2024/03/01 04:35:22;;;;;;;25.38;3.58;;;8.30;99.90;;;7.65;100.00;99601.38;4190893;28;20057;-77
2024/03/01 04:37:23;;;;;;;27.83;4.72;;;8.30;99.90;;;7.69;100.00;99600.09;4202593;28;20074;-77
2024/03/01 04:39:25;;;;;;;23.85;4.57;;;8.40;99.90;;;7.81;100.00;99595.31;4187997;28;20025;-77
2024/03/01 04:41:26;;;;;;;22.83;3.70;;;8.40;99.90;;;7.86;100.00;99573.78;4190145;28;20460;-77
2024/03/01 04:43:26;;;;;;;16.80;3.60;;;8.50;99.90;;;7.82;100.00;99555.75;4198627;28;20024;-77
2024/03/01 04:45:27;;;;;;;24.63;3.95;;;8.50;99.90;;;7.90;100.00;99554.09;4188090;28;20511;-77
2024/03/01 04:47:28;;;;;;;33.97;4.80;;;8.50;99.90;;;7.95;100.00;99541.28;4187980;28;20029;-77
2024/03/01 04:49:30;;;;;;;32.80;5.28;;;8.60;99.90;;;7.92;100.00;99555.56;4186630;28;20155;-77
2024/03/01 04:51:30;;;;;;;31.33;4.78;;;8.60;99.90;;;7.94;100.00;99556.25;4187696;28;20017;-77
2024/03/01 04:53:31;;;;;;;27.52;5.63;;;8.60;99.90;;;7.94;100.00;99542.28;4201036;28;20024;-77
2024/03/01 04:55:32;;;;;;;26.35;5.18;;;8.60;99.90;;;7.97;100.00;99520.94;4204469;28;20016;-77
2024/03/01 04:57:33;;;;;;;37.47;5.63;;;8.60;99.90;;;8.05;100.00;99536.66;4204397;28;20496;-77
2024/03/01 04:59:38;;;;;;;39.78;4.47;;;8.70;99.90;;;8.17;100.00;99494.13;4204094;28;20434;-77
2024/03/01 05:01:41;;;;;;;31.63;4.72;;;8.80;99.90;;;8.20;100.00;99495.56;4201733;28;20128;-78
2024/03/01 05:03:45;;;;;;;29.10;5.05;;;8.80;99.90;;;8.29;100.00;99507.72;4187794;28;20482;-77
2024/03/01 05:05:46;;;;;;;29.63;6.68;;;8.90;99.90;;;8.37;100.00;99512.09;4186397;28;20029;-77
2024/03/01 05:07:48;;;;;;;40.08;6.13;;;8.90;99.90;;;8.43;100.00;99498.28;4186606;28;20111;-77
2024/03/01 05:09:49;;;;;;;39.25;5.90;;;9.00;99.90;;;8.48;100.00;99496.78;4200995;28;20020;-77
2024/03/01 05:11:49;;;;;;;25.10;6.15;;;9.00;99.90;;;8.44;100.00;99490.22;4199459;28;20025;-78
2024/03/01 05:13:52;;;;;;;32.83;5.93;;;9.10;99.90;;;8.42;100.00;99486.97;4186486;28;20523;-78
2024/03/01 05:15:53;;;;;;;28.20;5.25;;;9.10;99.90;;;8.48;100.00;99499.41;4186415;28;20033;-77
2024/03/01 05:17:54;;;;;;;35.72;6.70;;;9.10;99.90;;;8.55;100.00;99489.00;4186195;28;20028;-77
2024/03/01 05:19:54;;;;;;;35.75;5.90;;;9.10;99.90;;;8.62;100.00;99511.81;4187398;28;20036;-78
2024/03/01 05:21:55;;;;;;;25.70;4.15;;;9.20;99.90;;;8.67;100.00;99496.34;4193516;28;20032;-78
2024/03/01 05:23:57;;;;;;;30.65;6.35;;;9.30;99.90;;;8.68;100.00;99505.88;4187487;28;20033;-78
2024/03/01 05:25:58;;;;;;;31.23;5.03;;;9.30;99.90;;;8.73;100.00;99529.81;4188901;28;20021;-77
2024/03/01 05:27:59;;;;;;;27.40;5.35;;;9.30;99.90;;;8.75;100.00;99543.59;4203936;28;20090;-78
2024/03/01 05:29:59;;;;;;;43.65;5.85;;;9.30;99.90;;;8.71;100.00;99565.97;4203955;28;20013;-77
2024/03/01 05:32:01;;;;;;;24.38;5.07;;;9.40;99.90;;;8.77;100.00;99525.84;4191401;28;20021;-78
2024/03/01 05:34:01;;;;;;;20.35;4.13;;;9.40;99.90;;;8.81;100.00;99521.88;4197153;28;20036;-78
2024/03/01 05:36:05;;;;;;;23.50;4.25;;;9.40;99.90;;;8.85;100.00;99543.38;4189360;28;20459;-77
2024/03/01 05:38:06;;;;;;;19.80;4.55;;;9.50;99.90;;;8.82;100.00;99543.72;4186821;28;20388;-78
2024/03/01 05:40:12;;;;;;;25.65;4.22;;;9.50;99.90;;;8.79;100.00;99558.03;4185168;28;20037;-78
2024/03/01 05:42:13;;;;;;;20.33;3.60;;;9.40;99.90;;;8.87;100.00;99579.03;4187438;28;20028;-77
2024/03/01 05:44:16;;;;;;;19.33;4.05;;;9.50;99.90;;;8.95;100.00;99577.34;4190858;28;20037;-78
2024/03/01 05:46:17;;;;;;;19.23;4.10;;;9.50;99.90;;;8.80;100.00;99562.31;4203723;28;20052;-78
2024/03/01 05:48:18;;;;;;;19.55;4.63;;;9.50;99.90;;;8.70;100.00;99559.06;4202415;28;20033;-79
2024/03/01 05:50:19;;;;;;;18.85;2.95;;;9.40;99.90;;;8.56;100.00;99554.56;4203214;28;20080;-78
2024/03/01 05:52:20;;;;;;;16.05;2.67;;;9.30;99.90;;;8.51;100.00;99535.84;4198860;28;20025;-78
2024/03/01 05:54:21;;;;;;;15.07;3.25;;;9.20;99.90;;;8.38;100.00;99530.34;4187051;28;20052;-77
2024/03/01 05:56:22;;;;;;;9.93;3.10;;;9.20;99.90;;;8.33;100.00;99532.66;4185864;28;20021;-78
2024/03/01 05:58:24;;;;;;;13.40;2.05;;;9.10;99.90;;;8.22;100.00;99510.16;4185787;28;20025;-78
2024/03/01 06:00:27;;;;;;;6.15;1.95;;;9.00;99.90;;;8.15;100.00;99518.91;4188923;28;20400;-77
2024/03/01 06:02:28;;;;;;;11.43;2.50;;;8.90;99.90;;;8.06;100.00;99507.63;4194780;28;20028;-77
2024/03/01 06:04:29;;;;;;;7.75;1.50;;;8.90;99.90;;;8.08;100.00;99515.31;4185328;28;20060;-77
2024/03/01 06:06:30;;;;;;;6.65;1.85;;;8.80;99.90;;;8.01;100.00;99516.97;4201039;28;20027;-77
2024/03/01 06:08:31;;;;;;;11.10;2.35;;;8.80;99.90;;;7.95;100.00;99520.28;4197995;28;20040;-77
2024/03/01 06:10:31;;;;;;;11.95;2.78;;;8.70;99.90;;;7.92;100.00;99521.44;4174497;28;20031;-77
2024/03/01 06:12:32;;;;;;;8.23;1.73;;;8.60;99.90;;;7.91;100.00;99521.63;4197336;28;20021;-77
2024/03/01 06:14:34;;;;;;;9.30;1.67;;;8.60;99.90;;;7.84;100.00;99516.22;4199921;28;20016;-77
2024/03/01 06:16:34;;;;;;;13.75;2.47;;;8.60;99.90;;;7.85;100.00;99511.78;4185584;28;20361;-77
2024/03/01 06:18:35;;;;;;;14.43;3.33;;;8.60;99.90;;;7.81;100.00;99516.56;4186720;28;20036;-77
2024/03/01 06:20:36;;;;;;;13.13;3.40;;;8.50;99.90;;;7.80;100.00;99515.72;4189633;28;20032;-77
2024/03/01 06:22:37;;;;;;;10.48;2.65;;;8.50;99.90;;;7.77;100.00;99516.06;4188368;28;20507;-77
2024/03/01 06:24:38;;;;;;;23.23;3.75;;;8.50;99.90;;;7.79;100.00;99521.97;4186573;28;20397;-77
2024/03/01 06:26:39;;;;;;;14.75;3.15;;;8.50;99.90;;;7.76;100.00;99526.75;4193630;28;20401;-77
2024/03/01 06:28:42;;;;;;;11.75;2.40;;;8.50;99.90;;;7.80;100.00;99512.28;4202948;28;20041;-77
2024/03/01 06:30:43;;;;;;;11.70;3.33;;;8.50;99.90;;;7.82;100.00;99520.00;4201032;28;20087;-77
2024/03/01 06:32:44;;;;;;;12.82;2.67;;;8.50;99.90;;;7.78;100.00;99533.47;4186697;28;20027;-77
2024/03/01 06:34:47;;;;;;;25.98;6.28;;;8.50;99.90;;;7.80;100.00;99526.22;4194101;28;20037;-77
2024/03/01 06:36:48;;;;;;;24.10;4.57;;;8.50;99.90;;;7.79;100.00;99535.09;4195895;28;20021;-77
2024/03/01 06:38:48;;;;;;;16.25;3.40;;;8.50;99.90;;;7.74;100.00;99532.16;4188526;28;20071;-77
2024/03/01 06:40:49;;;;;;;18.00;4.18;;;8.50;99.90;;;7.79;100.00;99535.09;4187303;28;20025;-77
2024/03/01 06:42:50;;;;;;;19.50;4.97;;;8.50;99.90;;;7.79;100.00;99537.72;4186247;28;20047;-77
2024/03/01 06:44:51;;;;;;;16.48;3.55;;;8.50;99.90;;;7.78;100.00;99538.72;4186241;28;20029;-77
2024/03/01 06:46:52;;;;;;;28.38;3.58;;;8.60;99.90;;;7.80;100.00;99536.72;4184746;28;20122;-77
2024/03/01 06:48:54;;;;;;;16.00;3.28;;;8.60;99.90;;;7.82;100.00;99545.25;4188389;28;20039;-77
2024/03/01 06:50:54;;;;;;;32.05;4.97;;;8.60;99.90;;;7.82;100.00;99554.13;4195406;28;20516;-77
2024/03/01 06:52:55;;;;;;;24.40;4.05;;;8.60;99.90;;;7.77;100.00;99547.56;4195870;28;20078;-77
2024/03/01 06:54:57;;;;;;;22.85;5.55;;;8.60;99.90;;;7.86;100.00;99556.25;4187830;28;20539;-77
2024/03/01 06:56:58;;;;;;;35.80;3.67;;;8.60;99.90;;;7.88;100.00;99550.84;4186068;28;20068;-77
2024/03/01 06:58:59;;;;;;;17.88;4.80;;;8.60;99.90;;;7.84;100.00;99547.72;4185975;28;20027;-77
2024/03/01 07:01:04;;;;;;;22.02;5.97;;;8.60;99.90;;;7.87;100.00;99536.88;4190606;28;20021;-77
2024/03/01 07:03:05;;;;;;;25.42;4.65;;;8.60;99.90;;;7.89;100.00;99545.41;4188842;28;20036;-77
2024/03/01 07:05:06;;;;;;;45.47;12.70;;;8.70;99.90;;;7.89;100.00;99545.41;4186430;28;20033;-77
2024/03/01 07:07:07;;;;;;;25.58;8.60;;;8.60;99.90;;;7.90;100.00;99546.22;4191613;28;20496;-77
2024/03/01 07:09:08;;;;;;;28.77;6.30;;;8.60;99.90;;;7.88;100.00;99549.03;4191074;28;20036;-77
2024/03/01 07:11:09;;;;;;;27.63;9.90;;;8.70;99.90;;;7.96;100.00;99548.19;4191658;28;20029;-77
2024/03/01 07:13:10;;;;;;;23.48;5.15;;;8.70;99.90;;;7.92;100.00;99550.31;4201128;28;20025;-77
2024/03/01 07:15:11;;;;;;;18.98;4.35;;;8.70;99.90;;;7.94;100.00;99555.41;4184493;28;20059;-77
2024/03/01 07:17:12;;;;;;;21.63;3.97;;;8.70;99.90;;;7.98;100.00;99552.28;4194245;28;20032;-77
2024/03/01 07:19:13;;;;;;;21.08;3.67;;;8.70;99.90;;;7.97;100.00;99560.34;4189029;28;20488;-77
2024/03/01 07:21:14;;;;;;;18.02;5.32;;;8.70;99.90;;;7.90;100.00;99551.47;4190087;28;20032;-77
2024/03/01 07:23:15;;;;;;;22.85;5.20;;;8.70;99.90;;;7.93;100.00;99545.91;4185733;28;20021;-77
2024/03/01 07:25:17;;;;;;;18.77;4.20;;;8.70;99.90;;;7.94;100.00;99542.28;4185465;28;20542;-78
2024/03/01 07:27:17;;;;;;;27.85;4.43;;;8.70;99.90;;;7.96;100.00;99542.94;4197977;28;20088;-77
2024/03/01 07:29:18;;;;;;;18.75;4.45;;;8.70;99.90;;;7.90;100.00;99539.19;4201929;28;20032;-77
2024/03/01 07:31:19;;;;;;;16.08;3.85;;;8.70;99.90;;;7.93;100.00;99551.16;4196164;28;20032;-77
2024/03/01 07:33:20;;;;;;;15.60;3.55;;;8.70;99.90;;;7.89;100.00;99552.47;4190503;28;20037;-77
2024/03/01 07:35:21;;;;;;;22.40;4.90;;;8.70;99.90;;;7.91;100.00;99564.47;4188377;28;20112;-77
2024/03/01 07:37:24;;;;;;;15.20;2.88;;;8.70;99.90;;;7.93;100.00;99561.66;4185431;28;20052;-79
2024/03/01 07:39:25;;;;;;;16.80;3.63;;;8.70;99.90;;;7.93;100.00;99572.97;4184130;28;20075;-76
2024/03/01 07:41:25;;;;;;;18.77;3.28;;;8.70;99.90;;;7.92;100.00;99570.50;4193145;28;20404;-77
2024/03/01 07:43:26;;;;;;;13.15;2.40;;;8.70;99.90;;;7.94;100.00;99579.88;4186234;28;20503;-77
2024/03/01 07:45:28;;;;;;;16.35;3.13;;;8.70;99.90;;;7.93;100.00;99586.09;4186794;28;20033;-80
2024/03/01 07:47:29;;;;;;;17.23;2.78;;;8.70;99.90;;;7.93;100.00;99588.72;4185297;28;20023;-80
2024/03/01 07:49:32;;;;;;;13.52;2.67;;;8.70;99.90;;;7.93;100.00;99593.97;4184004;28;20021;-79
2024/03/01 07:51:33;;;;;;;17.05;4.32;;;8.70;99.90;;;7.99;100.00;99608.25;4195073;28;20079;-83
2024/03/01 07:53:34;;;;;;;15.23;3.78;;;8.70;99.90;;;8.00;100.00;99620.41;4186278;28;20052;-76
2024/03/01 07:55:35;;;;;;;13.40;2.80;;;8.70;99.90;;;8.02;100.00;99618.41;4185262;28;20143;-77
2024/03/01 07:57:36;;;;;;;15.00;3.22;;;8.80;99.90;;;8.09;100.00;99622.03;4185280;28;20095;-78
2024/03/01 07:59:37;;;;;;;13.20;3.15;;;8.80;99.90;;;8.17;100.00;99622.00;4185212;28;20036;-78
2024/03/01 08:01:38;;;;;;;17.35;3.78;;;8.90;99.90;;;8.17;100.00;99625.44;4192709;28;20032;-76
2024/03/01 08:03:39;;;;;;;9.88;2.35;;;8.90;99.90;;;8.15;100.00;99630.03;4185324;28;20029;-76
2024/03/01 08:05:40;;;;;;;11.35;3.03;;;8.90;99.90;;;8.15;100.00;99650.25;4185050;28;20024;-76
2024/03/01 08:07:40;;;;;;;15.27;1.70;;;8.90;99.90;;;8.10;100.00;99650.72;4183667;28;20053;-77
2024/03/01 08:09:44;;;;;;;8.77;1.88;;;8.90;99.90;;;8.07;100.00;99647.63;4198511;28;20047;-77
2024/03/01 08:11:47;;;;;;;6.75;1.58;;;8.90;99.90;;;7.96;100.00;99634.84;4212286;28;20495;-76
2024/03/01 08:13:49;;;;;;;10.15;2.13;;;8.80;99.90;;;7.87;100.00;99625.31;4184048;28;20044;-76
2024/03/01 08:15:50;;;;;;;9.13;2.30;;;8.70;99.90;;;7.83;100.00;99611.72;4183900;28;20028;-77
2024/03/01 08:17:51;;;;;;;9.05;1.90;;;8.70;99.90;;;7.87;100.00;99599.91;4184986;28;20037;-76
2024/03/01 08:19:52;;;;;;;6.53;1.33;;;8.60;99.90;;;7.92;100.00;99602.00;4192831;28;20040;-76
2024/03/01 08:22:19;;;;;;;8.00;2.40;;;8.70;99.90;;;7.99;100.00;99603.00;4188644;28;20086;-76
2024/03/01 08:24:24;;;;;;;4.50;1.33;;;8.70;99.90;;;7.91;100.00;99611.72;4184897;28;20040;-76
2024/03/01 08:26:25;;;;;;;6.78;1.58;;;8.60;99.90;;;7.85;100.00;99606.31;4189235;28;20108;-77
2024/03/01 08:28:29;;;;;;;10.50;1.75;;;8.60;99.90;;;7.71;100.00;99597.28;4201759;28;20024;-76